sensor_id;sensor_type;location;lat;lon;timestamp;temperature;humidity
2729;DHT22;1372;47.956;7.830;2023-06-14T00:00:40;16.20;96.30
2729;DHT22;1372;47.956;7.830;2023-06-14T00:03:10;16.20;95.30
2729;DHT22;1372;47.956;7.830;2023-06-14T00:05:39;16.10;96.20
2729;DHT22;1372;47.956;7.830;2023-06-14T00:08:10;16.10;96.50
2729;DHT22;1372;47.956;7.830;2023-06-14T00:10:39;16.00;96.90
2729;DHT22;1372;47.956;7.830;2023-06-14T00:13:11;15.80;97.20
2729;DHT22;1372;47.956;7.830;2023-06-14T00:15:42;15.80;97.30
2729;DHT22;1372;47.956;7.830;2023-06-14T00:18:13;15.80;97.00
2729;DHT22;1372;47.956;7.830;2023-06-14T00:20:43;15.50;97.60
2729;DHT22;1372;47.956;7.830;2023-06-14T00:23:13;15.40;98.00
2729;DHT22;1372;47.956;7.830;2023-06-14T00:25:42;15.50;97.90
2729;DHT22;1372;47.956;7.830;2023-06-14T00:28:11;15.50;98.40
2729;DHT22;1372;47.956;7.830;2023-06-14T00:30:41;15.30;98.30
2729;DHT22;1372;47.956;7.830;2023-06-14T00:33:11;15.20;98.60
2729;DHT22;1372;47.956;7.830;2023-06-14T00:35:40;15.20;99.10
2729;DHT22;1372;47.956;7.830;2023-06-14T00:38:09;15.10;98.60
2729;DHT22;1372;47.956;7.830;2023-06-14T00:40:38;15.00;99.00
2729;DHT22;1372;47.956;7.830;2023-06-14T00:43:06;14.90;98.90
2729;DHT22;1372;47.956;7.830;2023-06-14T00:45:35;14.80;98.90
2729;DHT22;1372;47.956;7.830;2023-06-14T00:48:06;14.90;99.40
2729;DHT22;1372;47.956;7.830;2023-06-14T00:50:38;14.90;99.20
2729;DHT22;1372;47.956;7.830;2023-06-14T00:53:08;14.80;99.30
2729;DHT22;1372;47.956;7.830;2023-06-14T00:55:37;14.60;99.10
2729;DHT22;1372;47.956;7.830;2023-06-14T00:58:09;14.70;99.50
2729;DHT22;1372;47.956;7.830;2023-06-14T01:00:38;14.70;99.80
2729;DHT22;1372;47.956;7.830;2023-06-14T01:03:08;14.60;99.70
2729;DHT22;1372;47.956;7.830;2023-06-14T01:05:42;14.50;99.70
2729;DHT22;1372;47.956;7.830;2023-06-14T01:08:28;14.50;99.90
2729;DHT22;1372;47.956;7.830;2023-06-14T01:11:03;14.40;99.90
2729;DHT22;1372;47.956;7.830;2023-06-14T01:13:35;14.20;99.90
2729;DHT22;1372;47.956;7.830;2023-06-14T01:16:07;14.30;99.90
2729;DHT22;1372;47.956;7.830;2023-06-14T01:18:41;14.30;99.90
2729;DHT22;1372;47.956;7.830;2023-06-14T01:21:23;14.30;99.90
2729;DHT22;1372;47.956;7.830;2023-06-14T01:23:54;14.20;99.90
2729;DHT22;1372;47.956;7.830;2023-06-14T01:26:23;14.20;99.90
2729;DHT22;1372;47.956;7.830;2023-06-14T01:28:54;14.10;99.90
2729;DHT22;1372;47.956;7.830;2023-06-14T01:31:26;14.20;99.90
2729;DHT22;1372;47.956;7.830;2023-06-14T01:33:56;14.00;99.90
2729;DHT22;1372;47.956;7.830;2023-06-14T01:36:27;14.00;99.90
2729;DHT22;1372;47.956;7.830;2023-06-14T01:38:59;14.00;99.90
2729;DHT22;1372;47.956;7.830;2023-06-14T01:41:28;14.10;99.90
2729;DHT22;1372;47.956;7.830;2023-06-14T01:43:59;14.00;99.90
2729;DHT22;1372;47.956;7.830;2023-06-14T01:46:28;13.90;99.90
2729;DHT22;1372;47.956;7.830;2023-06-14T01:48:57;13.80;99.90
2729;DHT22;1372;47.956;7.830;2023-06-14T01:51:26;13.80;99.90
2729;DHT22;1372;47.956;7.830;2023-06-14T01:53:56;13.90;99.90
2729;DHT22;1372;47.956;7.830;2023-06-14T01:56:25;13.90;99.90
2729;DHT22;1372;47.956;7.830;2023-06-14T01:58:54;13.60;99.90
2729;DHT22;1372;47.956;7.830;2023-06-14T02:01:23;13.60;99.90
2729;DHT22;1372;47.956;7.830;2023-06-14T02:03:51;13.60;99.90
2729;DHT22;1372;47.956;7.830;2023-06-14T02:06:20;13.50;99.90
2729;DHT22;1372;47.956;7.830;2023-06-14T02:08:50;13.50;99.90
2729;DHT22;1372;47.956;7.830;2023-06-14T02:11:20;13.40;99.90
2729;DHT22;1372;47.956;7.830;2023-06-14T02:13:49;13.40;99.90
2729;DHT22;1372;47.956;7.830;2023-06-14T02:16:17;13.30;99.90
2729;DHT22;1372;47.956;7.830;2023-06-14T02:18:46;13.50;99.90
2729;DHT22;1372;47.956;7.830;2023-06-14T02:21:17;13.40;99.90
2729;DHT22;1372;47.956;7.830;2023-06-14T02:23:46;13.30;99.90
2729;DHT22;1372;47.956;7.830;2023-06-14T02:26:15;13.30;99.90
2729;DHT22;1372;47.956;7.830;2023-06-14T02:28:45;13.30;99.90
2729;DHT22;1372;47.956;7.830;2023-06-14T02:31:14;13.30;99.90
2729;DHT22;1372;47.956;7.830;2023-06-14T02:33:43;13.30;99.90
2729;DHT22;1372;47.956;7.830;2023-06-14T02:36:12;13.30;99.90
2729;DHT22;1372;47.956;7.830;2023-06-14T02:38:40;13.40;99.90
2729;DHT22;1372;47.956;7.830;2023-06-14T02:41:09;13.40;99.90
2729;DHT22;1372;47.956;7.830;2023-06-14T02:43:38;13.30;99.90
2729;DHT22;1372;47.956;7.830;2023-06-14T02:46:08;13.30;99.90
2729;DHT22;1372;47.956;7.830;2023-06-14T02:48:40;13.20;99.90
2729;DHT22;1372;47.956;7.830;2023-06-14T02:51:09;13.10;99.90
2729;DHT22;1372;47.956;7.830;2023-06-14T02:53:40;13.10;99.90
2729;DHT22;1372;47.956;7.830;2023-06-14T02:56:09;13.20;99.90
2729;DHT22;1372;47.956;7.830;2023-06-14T02:58:41;13.20;99.90
2729;DHT22;1372;47.956;7.830;2023-06-14T03:01:13;13.20;99.90
2729;DHT22;1372;47.956;7.830;2023-06-14T03:03:42;13.10;99.90
2729;DHT22;1372;47.956;7.830;2023-06-14T03:06:11;13.20;99.90
2729;DHT22;1372;47.956;7.830;2023-06-14T03:08:41;13.20;99.90
2729;DHT22;1372;47.956;7.830;2023-06-14T03:11:11;13.20;99.90
2729;DHT22;1372;47.956;7.830;2023-06-14T03:13:40;13.10;99.90
2729;DHT22;1372;47.956;7.830;2023-06-14T03:16:09;13.00;99.90
2729;DHT22;1372;47.956;7.830;2023-06-14T03:18:39;13.00;99.90
2729;DHT22;1372;47.956;7.830;2023-06-14T03:21:08;13.00;99.90
2729;DHT22;1372;47.956;7.830;2023-06-14T03:23:38;13.00;99.90
2729;DHT22;1372;47.956;7.830;2023-06-14T03:26:07;13.10;99.90
2729;DHT22;1372;47.956;7.830;2023-06-14T03:28:35;13.10;99.90
2729;DHT22;1372;47.956;7.830;2023-06-14T03:31:04;13.10;99.90
2729;DHT22;1372;47.956;7.830;2023-06-14T03:33:33;13.00;99.90
2729;DHT22;1372;47.956;7.830;2023-06-14T03:36:04;12.90;99.90
2729;DHT22;1372;47.956;7.830;2023-06-14T03:38:33;13.00;99.90
2729;DHT22;1372;47.956;7.830;2023-06-14T03:41:02;12.90;99.90
2729;DHT22;1372;47.956;7.830;2023-06-14T03:43:31;13.00;99.90
2729;DHT22;1372;47.956;7.830;2023-06-14T03:46:00;12.90;99.90
2729;DHT22;1372;47.956;7.830;2023-06-14T03:48:29;12.90;99.90
2729;DHT22;1372;47.956;7.830;2023-06-14T03:50:59;13.00;99.90
2729;DHT22;1372;47.956;7.830;2023-06-14T03:53:29;12.90;99.90
2729;DHT22;1372;47.956;7.830;2023-06-14T03:56:03;13.00;99.90
2729;DHT22;1372;47.956;7.830;2023-06-14T03:58:32;12.90;99.90
2729;DHT22;1372;47.956;7.830;2023-06-14T04:01:01;13.00;99.90
2729;DHT22;1372;47.956;7.830;2023-06-14T04:03:29;13.00;99.90
2729;DHT22;1372;47.956;7.830;2023-06-14T04:05:59;13.10;99.90
2729;DHT22;1372;47.956;7.830;2023-06-14T04:08:30;13.00;99.90
2729;DHT22;1372;47.956;7.830;2023-06-14T04:10:59;13.10;99.90
2729;DHT22;1372;47.956;7.830;2023-06-14T04:13:28;13.10;99.90
2729;DHT22;1372;47.956;7.830;2023-06-14T04:15:57;13.00;99.90
2729;DHT22;1372;47.956;7.830;2023-06-14T04:18:26;13.00;99.90
2729;DHT22;1372;47.956;7.830;2023-06-14T04:20:55;13.00;99.90
2729;DHT22;1372;47.956;7.830;2023-06-14T04:23:27;13.00;99.90
2729;DHT22;1372;47.956;7.830;2023-06-14T04:25:57;13.10;99.90
2729;DHT22;1372;47.956;7.830;2023-06-14T04:28:29;13.10;99.90
2729;DHT22;1372;47.956;7.830;2023-06-14T04:30:58;13.10;99.90
2729;DHT22;1372;47.956;7.830;2023-06-14T04:33:28;13.20;99.90
2729;DHT22;1372;47.956;7.830;2023-06-14T04:35:58;13.20;99.90
2729;DHT22;1372;47.956;7.830;2023-06-14T04:38:27;13.30;99.90
2729;DHT22;1372;47.956;7.830;2023-06-14T04:40:57;13.20;99.90
2729;DHT22;1372;47.956;7.830;2023-06-14T04:43:28;13.30;99.90
2729;DHT22;1372;47.956;7.830;2023-06-14T04:46:09;13.30;99.90
2729;DHT22;1372;47.956;7.830;2023-06-14T04:48:39;13.30;99.90
2729;DHT22;1372;47.956;7.830;2023-06-14T04:51:09;13.30;99.90
2729;DHT22;1372;47.956;7.830;2023-06-14T04:53:40;13.40;99.90
2729;DHT22;1372;47.956;7.830;2023-06-14T04:56:12;13.50;99.90
2729;DHT22;1372;47.956;7.830;2023-06-14T04:58:42;13.60;99.90
2729;DHT22;1372;47.956;7.830;2023-06-14T05:01:11;13.60;99.90
2729;DHT22;1372;47.956;7.830;2023-06-14T05:03:40;13.70;99.90
2729;DHT22;1372;47.956;7.830;2023-06-14T05:06:12;13.80;99.90
2729;DHT22;1372;47.956;7.830;2023-06-14T05:08:41;13.90;99.90
2729;DHT22;1372;47.956;7.830;2023-06-14T05:11:10;14.00;99.90
2729;DHT22;1372;47.956;7.830;2023-06-14T05:13:40;14.10;99.90
2729;DHT22;1372;47.956;7.830;2023-06-14T05:16:11;14.30;99.90
2729;DHT22;1372;47.956;7.830;2023-06-14T05:18:46;14.40;99.90
2729;DHT22;1372;47.956;7.830;2023-06-14T05:21:15;14.50;99.90
2729;DHT22;1372;47.956;7.830;2023-06-14T05:23:45;14.60;99.90
2729;DHT22;1372;47.956;7.830;2023-06-14T05:26:15;14.70;99.90
2729;DHT22;1372;47.956;7.830;2023-06-14T05:28:49;14.80;99.90
2729;DHT22;1372;47.956;7.830;2023-06-14T05:31:20;14.90;99.90
2729;DHT22;1372;47.956;7.830;2023-06-14T05:33:48;15.00;99.90
2729;DHT22;1372;47.956;7.830;2023-06-14T05:36:17;15.00;99.90
2729;DHT22;1372;47.956;7.830;2023-06-14T05:38:49;15.10;99.90
2729;DHT22;1372;47.956;7.830;2023-06-14T05:41:26;15.20;99.90
2729;DHT22;1372;47.956;7.830;2023-06-14T05:43:55;15.20;99.90
2729;DHT22;1372;47.956;7.830;2023-06-14T05:46:24;15.30;99.90
2729;DHT22;1372;47.956;7.830;2023-06-14T05:48:55;15.40;99.90
2729;DHT22;1372;47.956;7.830;2023-06-14T05:51:25;15.50;99.90
2729;DHT22;1372;47.956;7.830;2023-06-14T05:53:54;15.60;99.90
2729;DHT22;1372;47.956;7.830;2023-06-14T05:56:23;15.60;99.90
2729;DHT22;1372;47.956;7.830;2023-06-14T05:58:55;15.70;99.90
2729;DHT22;1372;47.956;7.830;2023-06-14T06:01:23;15.70;99.90
2729;DHT22;1372;47.956;7.830;2023-06-14T06:03:52;15.80;99.90
2729;DHT22;1372;47.956;7.830;2023-06-14T06:06:21;15.90;99.90
2729;DHT22;1372;47.956;7.830;2023-06-14T06:08:50;15.80;99.90
2729;DHT22;1372;47.956;7.830;2023-06-14T06:11:18;16.00;99.90
2729;DHT22;1372;47.956;7.830;2023-06-14T06:13:47;16.10;99.90
2729;DHT22;1372;47.956;7.830;2023-06-14T06:16:18;16.10;99.90
2729;DHT22;1372;47.956;7.830;2023-06-14T06:18:46;16.20;99.90
2729;DHT22;1372;47.956;7.830;2023-06-14T06:21:15;16.30;99.90
2729;DHT22;1372;47.956;7.830;2023-06-14T06:23:44;16.40;99.90
2729;DHT22;1372;47.956;7.830;2023-06-14T06:26:13;16.50;99.90
2729;DHT22;1372;47.956;7.830;2023-06-14T06:28:41;16.60;99.90
2729;DHT22;1372;47.956;7.830;2023-06-14T06:31:10;16.60;99.90
2729;DHT22;1372;47.956;7.830;2023-06-14T06:33:40;16.70;99.90
2729;DHT22;1372;47.956;7.830;2023-06-14T06:36:09;17.00;99.90
2729;DHT22;1372;47.956;7.830;2023-06-14T06:38:39;17.00;99.90
2729;DHT22;1372;47.956;7.830;2023-06-14T06:41:07;17.20;99.90
2729;DHT22;1372;47.956;7.830;2023-06-14T06:43:36;17.30;99.90
2729;DHT22;1372;47.956;7.830;2023-06-14T06:46:05;17.40;99.90
2729;DHT22;1372;47.956;7.830;2023-06-14T06:48:34;17.50;99.90
2729;DHT22;1372;47.956;7.830;2023-06-14T06:51:04;17.70;99.90
2729;DHT22;1372;47.956;7.830;2023-06-14T06:53:34;17.90;99.90
2729;DHT22;1372;47.956;7.830;2023-06-14T06:56:09;17.80;99.90
2729;DHT22;1372;47.956;7.830;2023-06-14T06:58:37;17.80;99.90
2729;DHT22;1372;47.956;7.830;2023-06-14T07:01:06;17.90;99.90
2729;DHT22;1372;47.956;7.830;2023-06-14T07:03:36;17.90;99.90
2729;DHT22;1372;47.956;7.830;2023-06-14T07:06:06;18.00;99.90
2729;DHT22;1372;47.956;7.830;2023-06-14T07:08:35;18.00;99.90
2729;DHT22;1372;47.956;7.830;2023-06-14T07:11:06;18.10;99.90
2729;DHT22;1372;47.956;7.830;2023-06-14T07:13:35;18.00;99.90
2729;DHT22;1372;47.956;7.830;2023-06-14T07:16:04;18.00;99.90
2729;DHT22;1372;47.956;7.830;2023-06-14T07:18:33;18.10;99.90
2729;DHT22;1372;47.956;7.830;2023-06-14T07:21:02;18.20;99.90
2729;DHT22;1372;47.956;7.830;2023-06-14T07:23:32;18.30;99.90
2729;DHT22;1372;47.956;7.830;2023-06-14T07:26:01;18.30;99.90
2729;DHT22;1372;47.956;7.830;2023-06-14T07:28:30;18.40;99.90
2729;DHT22;1372;47.956;7.830;2023-06-14T07:30:59;18.40;99.90
2729;DHT22;1372;47.956;7.830;2023-06-14T07:33:31;18.60;99.90
2729;DHT22;1372;47.956;7.830;2023-06-14T07:35:59;18.50;99.90
2729;DHT22;1372;47.956;7.830;2023-06-14T07:38:32;18.60;99.90
2729;DHT22;1372;47.956;7.830;2023-06-14T07:41:01;18.70;99.90
2729;DHT22;1372;47.956;7.830;2023-06-14T07:43:30;18.80;99.90
2729;DHT22;1372;47.956;7.830;2023-06-14T07:45:59;18.90;99.90
2729;DHT22;1372;47.956;7.830;2023-06-14T07:48:34;18.90;99.90
2729;DHT22;1372;47.956;7.830;2023-06-14T07:51:03;19.00;99.90
2729;DHT22;1372;47.956;7.830;2023-06-14T07:53:33;19.10;99.90
2729;DHT22;1372;47.956;7.830;2023-06-14T07:56:02;19.10;99.70
2729;DHT22;1372;47.956;7.830;2023-06-14T07:58:31;19.20;99.90
2729;DHT22;1372;47.956;7.830;2023-06-14T08:01:00;19.40;99.20
2729;DHT22;1372;47.956;7.830;2023-06-14T08:03:36;19.40;99.00
2729;DHT22;1372;47.956;7.830;2023-06-14T08:06:06;19.40;97.90
2729;DHT22;1372;47.956;7.830;2023-06-14T08:08:37;19.50;98.20
2729;DHT22;1372;47.956;7.830;2023-06-14T08:11:05;19.60;97.60
2729;DHT22;1372;47.956;7.830;2023-06-14T08:13:34;19.70;98.00
2729;DHT22;1372;47.956;7.830;2023-06-14T08:16:03;19.70;98.50
2729;DHT22;1372;47.956;7.830;2023-06-14T08:18:33;19.80;98.30
2729;DHT22;1372;47.956;7.830;2023-06-14T08:21:02;19.90;98.20
2729;DHT22;1372;47.956;7.830;2023-06-14T08:23:31;19.90;98.80
2729;DHT22;1372;47.956;7.830;2023-06-14T08:26:01;20.10;99.10
2729;DHT22;1372;47.956;7.830;2023-06-14T08:28:31;20.20;98.90
2729;DHT22;1372;47.956;7.830;2023-06-14T08:31:00;20.30;98.00
2729;DHT22;1372;47.956;7.830;2023-06-14T08:33:28;20.30;98.70
2729;DHT22;1372;47.956;7.830;2023-06-14T08:36:00;20.40;98.90
2729;DHT22;1372;47.956;7.830;2023-06-14T08:38:28;20.40;98.70
2729;DHT22;1372;47.956;7.830;2023-06-14T08:41:12;20.50;98.50
2729;DHT22;1372;47.956;7.830;2023-06-14T08:43:48;20.60;98.00
2729;DHT22;1372;47.956;7.830;2023-06-14T08:46:20;20.70;98.70
2729;DHT22;1372;47.956;7.830;2023-06-14T08:48:52;20.70;98.90
2729;DHT22;1372;47.956;7.830;2023-06-14T08:51:25;20.70;99.30
2729;DHT22;1372;47.956;7.830;2023-06-14T08:54:01;20.80;99.90
2729;DHT22;1372;47.956;7.830;2023-06-14T08:56:32;21.00;99.90
2729;DHT22;1372;47.956;7.830;2023-06-14T08:59:02;21.00;99.80
2729;DHT22;1372;47.956;7.830;2023-06-14T09:01:33;21.20;99.90
2729;DHT22;1372;47.956;7.830;2023-06-14T09:04:03;21.20;99.60
2729;DHT22;1372;47.956;7.830;2023-06-14T09:06:33;21.20;99.90
2729;DHT22;1372;47.956;7.830;2023-06-14T09:09:04;21.20;99.50
2729;DHT22;1372;47.956;7.830;2023-06-14T09:11:36;21.30;99.70
2729;DHT22;1372;47.956;7.830;2023-06-14T09:14:04;21.40;99.80
2729;DHT22;1372;47.956;7.830;2023-06-14T09:16:33;21.40;99.80
2729;DHT22;1372;47.956;7.830;2023-06-14T09:19:02;21.50;99.90
2729;DHT22;1372;47.956;7.830;2023-06-14T09:21:34;21.60;99.90
2729;DHT22;1372;47.956;7.830;2023-06-14T09:24:05;21.70;99.90
2729;DHT22;1372;47.956;7.830;2023-06-14T09:26:39;21.80;99.90
2729;DHT22;1372;47.956;7.830;2023-06-14T09:29:09;21.90;99.80
2729;DHT22;1372;47.956;7.830;2023-06-14T09:31:38;22.00;99.90
2729;DHT22;1372;47.956;7.830;2023-06-14T09:34:07;22.10;99.00
2729;DHT22;1372;47.956;7.830;2023-06-14T09:36:40;22.10;98.30
2729;DHT22;1372;47.956;7.830;2023-06-14T09:39:17;22.10;98.20
2729;DHT22;1372;47.956;7.830;2023-06-14T09:41:47;22.30;97.90
2729;DHT22;1372;47.956;7.830;2023-06-14T09:44:17;22.30;97.50
2729;DHT22;1372;47.956;7.830;2023-06-14T09:46:48;22.40;97.50
2729;DHT22;1372;47.956;7.830;2023-06-14T09:49:19;22.40;97.80
2729;DHT22;1372;47.956;7.830;2023-06-14T09:51:51;22.50;97.40
2729;DHT22;1372;47.956;7.830;2023-06-14T09:54:22;22.70;97.30
2729;DHT22;1372;47.956;7.830;2023-06-14T09:56:54;22.80;95.90
2729;DHT22;1372;47.956;7.830;2023-06-14T09:59:26;22.80;96.20
2729;DHT22;1372;47.956;7.830;2023-06-14T10:02:00;22.80;95.90
2729;DHT22;1372;47.956;7.830;2023-06-14T10:04:36;22.90;95.70
2729;DHT22;1372;47.956;7.830;2023-06-14T10:07:05;22.90;95.90
2729;DHT22;1372;47.956;7.830;2023-06-14T10:09:34;23.00;95.50
2729;DHT22;1372;47.956;7.830;2023-06-14T10:12:06;23.10;96.00
2729;DHT22;1372;47.956;7.830;2023-06-14T10:14:41;23.30;95.20
2729;DHT22;1372;47.956;7.830;2023-06-14T10:17:12;23.20;95.50
2729;DHT22;1372;47.956;7.830;2023-06-14T10:19:53;23.40;95.00
2729;DHT22;1372;47.956;7.830;2023-06-14T10:22:35;23.50;94.60
2729;DHT22;1372;47.956;7.830;2023-06-14T10:25:13;23.60;94.90
2729;DHT22;1372;47.956;7.830;2023-06-14T10:28:16;23.70;94.30
2729;DHT22;1372;47.956;7.830;2023-06-14T10:31:06;23.80;94.10
2729;DHT22;1372;47.956;7.830;2023-06-14T10:33:37;23.80;94.10
2729;DHT22;1372;47.956;7.830;2023-06-14T10:36:24;23.80;93.90
2729;DHT22;1372;47.956;7.830;2023-06-14T10:39:04;23.90;93.30
2729;DHT22;1372;47.956;7.830;2023-06-14T10:41:35;24.00;94.60
2729;DHT22;1372;47.956;7.830;2023-06-14T10:44:35;24.00;94.90
2729;DHT22;1372;47.956;7.830;2023-06-14T10:47:09;24.10;94.20
2729;DHT22;1372;47.956;7.830;2023-06-14T10:49:41;24.10;93.60
2729;DHT22;1372;47.956;7.830;2023-06-14T10:52:12;24.10;93.20
2729;DHT22;1372;47.956;7.830;2023-06-14T10:55:06;24.10;93.40
2729;DHT22;1372;47.956;7.830;2023-06-14T10:57:43;24.20;94.00
2729;DHT22;1372;47.956;7.830;2023-06-14T11:00:23;24.30;94.30
2729;DHT22;1372;47.956;7.830;2023-06-14T11:03:33;24.30;93.20
2729;DHT22;1372;47.956;7.830;2023-06-14T11:06:14;24.40;92.80
2729;DHT22;1372;47.956;7.830;2023-06-14T11:09:13;24.50;93.00
2729;DHT22;1372;47.956;7.830;2023-06-14T11:11:54;24.50;92.30
2729;DHT22;1372;47.956;7.830;2023-06-14T11:14:25;24.70;92.30
2729;DHT22;1372;47.956;7.830;2023-06-14T11:16:55;24.80;92.30
2729;DHT22;1372;47.956;7.830;2023-06-14T11:19:23;24.90;92.50
2729;DHT22;1372;47.956;7.830;2023-06-14T11:21:55;25.00;92.20
2729;DHT22;1372;47.956;7.830;2023-06-14T11:24:29;25.00;91.80
2729;DHT22;1372;47.956;7.830;2023-06-14T11:26:58;25.00;92.10
2729;DHT22;1372;47.956;7.830;2023-06-14T11:29:29;25.00;92.00
2729;DHT22;1372;47.956;7.830;2023-06-14T11:32:00;25.00;92.10
2729;DHT22;1372;47.956;7.830;2023-06-14T11:34:29;25.00;92.10
2729;DHT22;1372;47.956;7.830;2023-06-14T11:36:58;25.00;91.30
2729;DHT22;1372;47.956;7.830;2023-06-14T11:39:27;25.00;91.60
2729;DHT22;1372;47.956;7.830;2023-06-14T11:41:56;25.00;91.20
2729;DHT22;1372;47.956;7.830;2023-06-14T11:44:28;25.00;91.80
2729;DHT22;1372;47.956;7.830;2023-06-14T11:46:57;25.00;91.80
2729;DHT22;1372;47.956;7.830;2023-06-14T11:49:28;25.20;91.40
2729;DHT22;1372;47.956;7.830;2023-06-14T11:51:56;25.30;91.90
2729;DHT22;1372;47.956;7.830;2023-06-14T11:54:28;25.40;91.90
2729;DHT22;1372;47.956;7.830;2023-06-14T11:56:57;25.40;91.60
2729;DHT22;1372;47.956;7.830;2023-06-14T11:59:26;25.50;91.90
2729;DHT22;1372;47.956;7.830;2023-06-14T12:01:56;25.50;91.40
2729;DHT22;1372;47.956;7.830;2023-06-14T12:04:28;25.40;91.50
2729;DHT22;1372;47.956;7.830;2023-06-14T12:07:08;25.50;91.00
2729;DHT22;1372;47.956;7.830;2023-06-14T12:09:39;25.50;91.50
2729;DHT22;1372;47.956;7.830;2023-06-14T12:12:08;25.50;91.60
2729;DHT22;1372;47.956;7.830;2023-06-14T12:14:39;25.60;90.90
2729;DHT22;1372;47.956;7.830;2023-06-14T12:17:09;25.60;91.70
2729;DHT22;1372;47.956;7.830;2023-06-14T12:19:43;25.60;91.60
2729;DHT22;1372;47.956;7.830;2023-06-14T12:22:13;25.70;91.10
2729;DHT22;1372;47.956;7.830;2023-06-14T12:24:42;25.80;91.10
2729;DHT22;1372;47.956;7.830;2023-06-14T12:27:12;25.90;90.70
2729;DHT22;1372;47.956;7.830;2023-06-14T12:29:45;26.00;90.80
2729;DHT22;1372;47.956;7.830;2023-06-14T12:32:13;26.00;91.00
2729;DHT22;1372;47.956;7.830;2023-06-14T12:34:43;26.00;90.50
2729;DHT22;1372;47.956;7.830;2023-06-14T12:37:12;26.00;90.50
2729;DHT22;1372;47.956;7.830;2023-06-14T12:39:41;26.10;90.50
2729;DHT22;1372;47.956;7.830;2023-06-14T12:42:10;26.20;90.10
2729;DHT22;1372;47.956;7.830;2023-06-14T12:44:40;26.20;90.20
2729;DHT22;1372;47.956;7.830;2023-06-14T12:47:09;26.10;90.00
2729;DHT22;1372;47.956;7.830;2023-06-14T12:49:39;26.10;90.10
2729;DHT22;1372;47.956;7.830;2023-06-14T12:52:10;26.00;90.10
2729;DHT22;1372;47.956;7.830;2023-06-14T12:54:39;26.00;91.00
2729;DHT22;1372;47.956;7.830;2023-06-14T12:57:10;26.20;90.50
2729;DHT22;1372;47.956;7.830;2023-06-14T12:59:39;26.30;90.70
2729;DHT22;1372;47.956;7.830;2023-06-14T13:02:13;26.50;90.20
2729;DHT22;1372;47.956;7.830;2023-06-14T13:04:44;26.40;89.80
2729;DHT22;1372;47.956;7.830;2023-06-14T13:07:14;26.30;90.40
2729;DHT22;1372;47.956;7.830;2023-06-14T13:09:47;26.40;90.60
2729;DHT22;1372;47.956;7.830;2023-06-14T13:12:16;26.40;89.80
2729;DHT22;1372;47.956;7.830;2023-06-14T13:14:45;26.50;88.80
2729;DHT22;1372;47.956;7.830;2023-06-14T13:17:14;26.50;90.40
2729;DHT22;1372;47.956;7.830;2023-06-14T13:19:42;26.60;90.60
2729;DHT22;1372;47.956;7.830;2023-06-14T13:22:11;26.60;89.90
2729;DHT22;1372;47.956;7.830;2023-06-14T13:24:41;26.50;90.30
2729;DHT22;1372;47.956;7.830;2023-06-14T13:27:11;26.70;91.10
2729;DHT22;1372;47.956;7.830;2023-06-14T13:29:41;26.80;89.60
2729;DHT22;1372;47.956;7.830;2023-06-14T13:32:10;26.70;90.00
2729;DHT22;1372;47.956;7.830;2023-06-14T13:34:39;26.70;90.60
2729;DHT22;1372;47.956;7.830;2023-06-14T13:37:07;26.80;90.20
2729;DHT22;1372;47.956;7.830;2023-06-14T13:39:36;26.80;90.20
2729;DHT22;1372;47.956;7.830;2023-06-14T13:42:07;26.80;89.10
2729;DHT22;1372;47.956;7.830;2023-06-14T13:44:37;26.80;90.30
2729;DHT22;1372;47.956;7.830;2023-06-14T13:47:07;26.80;90.00
2729;DHT22;1372;47.956;7.830;2023-06-14T13:49:36;26.80;89.30
2729;DHT22;1372;47.956;7.830;2023-06-14T13:52:06;26.80;89.80
2729;DHT22;1372;47.956;7.830;2023-06-14T13:54:38;26.80;89.70
2729;DHT22;1372;47.956;7.830;2023-06-14T13:57:09;26.90;89.90
2729;DHT22;1372;47.956;7.830;2023-06-14T13:59:40;26.90;88.10
2729;DHT22;1372;47.956;7.830;2023-06-14T14:02:11;26.90;88.30
2729;DHT22;1372;47.956;7.830;2023-06-14T14:04:43;26.80;88.90
2729;DHT22;1372;47.956;7.830;2023-06-14T14:07:12;26.90;87.90
2729;DHT22;1372;47.956;7.830;2023-06-14T14:09:49;26.90;88.40
2729;DHT22;1372;47.956;7.830;2023-06-14T14:12:32;27.00;89.20
2729;DHT22;1372;47.956;7.830;2023-06-14T14:15:04;27.10;88.00
2729;DHT22;1372;47.956;7.830;2023-06-14T14:18:29;27.00;88.60
2729;DHT22;1372;47.956;7.830;2023-06-14T14:20:59;27.20;88.50
2729;DHT22;1372;47.956;7.830;2023-06-14T14:23:29;27.20;86.70
2729;DHT22;1372;47.956;7.830;2023-06-14T14:25:59;27.10;87.90
2729;DHT22;1372;47.956;7.830;2023-06-14T14:28:36;27.20;88.30
2729;DHT22;1372;47.956;7.830;2023-06-14T14:31:10;27.10;87.70
2729;DHT22;1372;47.956;7.830;2023-06-14T14:33:39;27.20;88.50
2729;DHT22;1372;47.956;7.830;2023-06-14T14:36:08;27.40;87.20
2729;DHT22;1372;47.956;7.830;2023-06-14T14:38:37;27.40;87.60
2729;DHT22;1372;47.956;7.830;2023-06-14T14:41:06;27.40;87.00
2729;DHT22;1372;47.956;7.830;2023-06-14T14:43:37;27.30;87.50
2729;DHT22;1372;47.956;7.830;2023-06-14T14:46:06;27.40;86.20
2729;DHT22;1372;47.956;7.830;2023-06-14T14:48:35;27.30;86.10
2729;DHT22;1372;47.956;7.830;2023-06-14T14:51:03;27.10;87.10
2729;DHT22;1372;47.956;7.830;2023-06-14T14:53:32;27.10;86.60
2729;DHT22;1372;47.956;7.830;2023-06-14T14:56:01;27.20;88.10
2729;DHT22;1372;47.956;7.830;2023-06-14T14:58:33;27.30;86.50
2729;DHT22;1372;47.956;7.830;2023-06-14T15:01:03;27.30;86.90
2729;DHT22;1372;47.956;7.830;2023-06-14T15:03:33;27.30;87.50
2729;DHT22;1372;47.956;7.830;2023-06-14T15:06:19;27.40;87.50
2729;DHT22;1372;47.956;7.830;2023-06-14T15:08:48;27.50;87.20
2729;DHT22;1372;47.956;7.830;2023-06-14T15:11:18;27.40;88.30
2729;DHT22;1372;47.956;7.830;2023-06-14T15:13:50;27.50;87.80
2729;DHT22;1372;47.956;7.830;2023-06-14T15:16:22;27.40;88.20
2729;DHT22;1372;47.956;7.830;2023-06-14T15:18:54;27.40;87.60
2729;DHT22;1372;47.956;7.830;2023-06-14T15:21:25;27.50;86.80
2729;DHT22;1372;47.956;7.830;2023-06-14T15:23:55;27.40;86.90
2729;DHT22;1372;47.956;7.830;2023-06-14T15:26:27;27.30;88.30
2729;DHT22;1372;47.956;7.830;2023-06-14T15:28:56;27.40;87.10
2729;DHT22;1372;47.956;7.830;2023-06-14T15:31:30;27.40;86.70
2729;DHT22;1372;47.956;7.830;2023-06-14T15:34:01;27.40;86.40
2729;DHT22;1372;47.956;7.830;2023-06-14T15:36:30;27.20;86.60
2729;DHT22;1372;47.956;7.830;2023-06-14T15:38:59;27.20;87.10
2729;DHT22;1372;47.956;7.830;2023-06-14T15:41:28;27.10;86.50
2729;DHT22;1372;47.956;7.830;2023-06-14T15:43:57;26.90;87.10
2729;DHT22;1372;47.956;7.830;2023-06-14T15:46:28;27.00;88.70
2729;DHT22;1372;47.956;7.830;2023-06-14T15:48:57;27.10;87.30
2729;DHT22;1372;47.956;7.830;2023-06-14T15:51:26;27.10;86.60
2729;DHT22;1372;47.956;7.830;2023-06-14T15:53:55;27.00;87.30
2729;DHT22;1372;47.956;7.830;2023-06-14T15:56:25;27.00;85.90
2729;DHT22;1372;47.956;7.830;2023-06-14T15:58:55;27.00;87.10
2729;DHT22;1372;47.956;7.830;2023-06-14T16:01:25;27.00;87.80
2729;DHT22;1372;47.956;7.830;2023-06-14T16:03:55;27.00;86.70
2729;DHT22;1372;47.956;7.830;2023-06-14T16:06:24;27.00;86.80
2729;DHT22;1372;47.956;7.830;2023-06-14T16:08:54;27.00;85.90
2729;DHT22;1372;47.956;7.830;2023-06-14T16:11:23;26.90;86.40
2729;DHT22;1372;47.956;7.830;2023-06-14T16:13:54;26.90;88.60
2729;DHT22;1372;47.956;7.830;2023-06-14T16:16:23;26.90;88.00
2729;DHT22;1372;47.956;7.830;2023-06-14T16:18:57;26.90;87.40
2729;DHT22;1372;47.956;7.830;2023-06-14T16:21:26;27.00;87.80
2729;DHT22;1372;47.956;7.830;2023-06-14T16:23:55;26.90;87.50
2729;DHT22;1372;47.956;7.830;2023-06-14T16:26:24;26.80;86.50